Portada
METAR-TAF:

METAR-TAF

Aeroports :

Koksijde, Bèlgica

latitud: 51-05N, longitud: 002-39E, altitud: 4 m

Observació

L'informe es va fer fa 14 minuts, a les 20:25 UTC
Vent 4 kt del Nord-Est
Temperatura 19°C
Humitat 83%
Pressió 1018 hPa
Visibilitat: 5000 m

METAR: EBFN 242025Z AUTO 04004KT 5000 NCD 19/16 Q1018 WHT

Hora: 22:39 (20:39 UTC)

Pronòstic

L'informe es va fer fa 4 hores i 58 minuts, a les 15:41 UTC
Pronòstic vàlid del 24 a les 19 UTC al 25 a les 07 UTC
Vent 5 kt del Est
Visibilitat 10 km o més
Núvols disperses a una alçada de 25000 ft

TAF: EBFN 241541Z 2419/2507 09005KT 9999 SCT250

Observacions i pronòstics meteorològics de més de 4000 aeroports (METAR i TAF).

Les estacions disponibles són els punts grocs i vermells al mapa.

Posi el ratolí al punt desitjat per veure el nom de l'estació.

Feu clic per veure les observacions i els pronòstics meteorològics.

Per canviar el mapa: feu clic els botons verds amb una creu de color negre per apropar; al botó verd amb un guió per allunyar la imatge; o en les fletxes verdes per a mapes adjacents.


METAR-TAF: